sensor_id;sensor_type;location;lat;lon;timestamp;pressure;altitude;pressure_sealevel;temperature;humidity
43420;BME280;29017;51.514;-0.178;2023-02-13T00:00:09;103161.78;;;10.00;77.97
43420;BME280;29017;51.514;-0.178;2023-02-13T00:02:36;103151.34;;;9.98;78.09
43420;BME280;29017;51.514;-0.178;2023-02-13T00:05:03;103152.19;;;9.99;78.07
43420;BME280;29017;51.514;-0.178;2023-02-13T00:07:30;103151.63;;;9.94;77.59
43420;BME280;29017;51.514;-0.178;2023-02-13T00:09:57;103146.44;;;9.92;78.20
43420;BME280;29017;51.514;-0.178;2023-02-13T00:12:24;103145.78;;;9.88;78.00
43420;BME280;29017;51.514;-0.178;2023-02-13T00:14:51;103145.88;;;9.87;77.19
43420;BME280;29017;51.514;-0.178;2023-02-13T00:17:18;103144.09;;;9.87;77.07
43420;BME280;29017;51.514;-0.178;2023-02-13T00:19:45;103139.03;;;9.84;76.92
43420;BME280;29017;51.514;-0.178;2023-02-13T00:22:12;103143.72;;;9.79;77.02
43420;BME280;29017;51.514;-0.178;2023-02-13T00:24:39;103136.84;;;9.77;77.11
43420;BME280;29017;51.514;-0.178;2023-02-13T00:27:06;103137.69;;;9.77;77.97
43420;BME280;29017;51.514;-0.178;2023-02-13T00:29:33;103138.53;;;9.78;77.76
43420;BME280;29017;51.514;-0.178;2023-02-13T00:32:00;103131.59;;;9.77;77.45
43420;BME280;29017;51.514;-0.178;2023-02-13T00:34:27;103128.22;;;9.75;77.07
43420;BME280;29017;51.514;-0.178;2023-02-13T00:36:54;103127.38;;;9.74;77.52
43420;BME280;29017;51.514;-0.178;2023-02-13T00:39:21;103123.97;;;9.72;77.18
43420;BME280;29017;51.514;-0.178;2023-02-13T00:41:48;103129.22;;;9.72;77.45
43420;BME280;29017;51.514;-0.178;2023-02-13T00:44:15;103130.00;;;9.74;78.20
43420;BME280;29017;51.514;-0.178;2023-02-13T00:46:42;103139.66;;;9.74;77.84
43420;BME280;29017;51.514;-0.178;2023-02-13T00:49:09;103135.34;;;9.73;77.92
43420;BME280;29017;51.514;-0.178;2023-02-13T00:51:36;103126.69;;;9.71;78.15
43420;BME280;29017;51.514;-0.178;2023-02-13T00:54:03;103125.09;;;9.68;78.29
43420;BME280;29017;51.514;-0.178;2023-02-13T00:56:30;103127.72;;;9.68;78.54
43420;BME280;29017;51.514;-0.178;2023-02-13T00:58:57;103127.06;;;9.65;78.81
43420;BME280;29017;51.514;-0.178;2023-02-13T01:01:24;103122.81;;;9.62;78.51
43420;BME280;29017;51.514;-0.178;2023-02-13T01:03:51;103124.50;;;9.63;79.19
43420;BME280;29017;51.514;-0.178;2023-02-13T01:06:18;103127.88;;;9.65;79.29
43420;BME280;29017;51.514;-0.178;2023-02-13T01:08:45;103130.44;;;9.67;79.87
43420;BME280;29017;51.514;-0.178;2023-02-13T01:11:13;103133.13;;;9.65;78.44
43420;BME280;29017;51.514;-0.178;2023-02-13T01:13:40;103124.50;;;9.63;79.20
43420;BME280;29017;51.514;-0.178;2023-02-13T01:16:07;103129.84;;;9.62;78.67
43420;BME280;29017;51.514;-0.178;2023-02-13T01:18:34;103130.03;;;9.59;79.22
43420;BME280;29017;51.514;-0.178;2023-02-13T01:21:02;103129.19;;;9.58;77.89
43420;BME280;29017;51.514;-0.178;2023-02-13T01:23:32;103133.53;;;9.59;78.24
43420;BME280;29017;51.514;-0.178;2023-02-13T01:25:59;103141.41;;;9.59;78.54
43420;BME280;29017;51.514;-0.178;2023-02-13T01:28:26;103138.84;;;9.58;77.61
43420;BME280;29017;51.514;-0.178;2023-02-13T01:30:54;103138.09;;;9.56;76.86
43420;BME280;29017;51.514;-0.178;2023-02-13T01:33:23;103133.78;;;9.55;76.97
43420;BME280;29017;51.514;-0.178;2023-02-13T01:35:50;103125.91;;;9.55;76.63
43420;BME280;29017;51.514;-0.178;2023-02-13T01:38:17;103130.47;;;9.51;76.52
43420;BME280;29017;51.514;-0.178;2023-02-13T01:40:45;103119.31;;;9.48;76.50
43420;BME280;29017;51.514;-0.178;2023-02-13T01:43:12;103121.09;;;9.47;77.17
43420;BME280;29017;51.514;-0.178;2023-02-13T01:45:40;103126.34;;;9.47;76.81
43420;BME280;29017;51.514;-0.178;2023-02-13T01:50:41;103117.69;;;9.45;77.69
43420;BME280;29017;51.514;-0.178;2023-02-13T01:53:11;103120.16;;;9.48;77.94
43420;BME280;29017;51.514;-0.178;2023-02-13T01:55:42;103116.41;;;9.52;80.10
43420;BME280;29017;51.514;-0.178;2023-02-13T01:58:11;103115.47;;;9.53;79.95
43420;BME280;29017;51.514;-0.178;2023-02-13T02:00:40;103120.81;;;9.52;79.32
43420;BME280;29017;51.514;-0.178;2023-02-13T02:03:10;103119.56;;;9.43;78.19
43420;BME280;29017;51.514;-0.178;2023-02-13T02:05:38;103123.47;;;9.36;77.73
43420;BME280;29017;51.514;-0.178;2023-02-13T02:08:06;103126.38;;;9.31;78.28
43420;BME280;29017;51.514;-0.178;2023-02-13T02:10:35;103115.84;;;9.31;78.07
43420;BME280;29017;51.514;-0.178;2023-02-13T02:13:04;103116.91;;;9.29;78.41
43420;BME280;29017;51.514;-0.178;2023-02-13T02:15:32;103117.81;;;9.28;78.40
43420;BME280;29017;51.514;-0.178;2023-02-13T02:17:59;103110.78;;;9.28;79.40
43420;BME280;29017;51.514;-0.178;2023-02-13T02:22:59;103100.28;;;9.28;79.10
43420;BME280;29017;51.514;-0.178;2023-02-13T02:45:33;103095.09;;;9.27;78.77
43420;BME280;29017;51.514;-0.178;2023-02-13T02:48:06;103091.56;;;9.28;78.33
43420;BME280;29017;51.514;-0.178;2023-02-13T02:55:37;103091.06;;;9.21;78.01
43420;BME280;29017;51.514;-0.178;2023-02-13T02:58:08;103103.34;;;9.21;77.81
43420;BME280;29017;51.514;-0.178;2023-02-13T03:00:40;103100.81;;;9.19;78.00
43420;BME280;29017;51.514;-0.178;2023-02-13T03:05:45;103090.97;;;9.23;78.21
43420;BME280;29017;51.514;-0.178;2023-02-13T03:08:16;103098.94;;;9.21;77.87
43420;BME280;29017;51.514;-0.178;2023-02-13T03:11:04;103093.41;;;9.26;78.25
43420;BME280;29017;51.514;-0.178;2023-02-13T03:16:05;103088.00;;;9.29;78.04
43420;BME280;29017;51.514;-0.178;2023-02-13T03:18:38;103087.16;;;9.28;78.02
43420;BME280;29017;51.514;-0.178;2023-02-13T03:21:11;103088.00;;;9.29;78.50
43420;BME280;29017;51.514;-0.178;2023-02-13T03:28:47;103088.75;;;9.31;78.22
43420;BME280;29017;51.514;-0.178;2023-02-13T03:33:49;103078.91;;;9.34;81.68
43420;BME280;29017;51.514;-0.178;2023-02-13T03:38:54;103085.09;;;9.33;79.83
43420;BME280;29017;51.514;-0.178;2023-02-13T03:41:25;103082.56;;;9.32;78.29
43420;BME280;29017;51.514;-0.178;2023-02-13T03:46:23;103072.81;;;9.34;78.82
43420;BME280;29017;51.514;-0.178;2023-02-13T03:48:51;103078.06;;;9.34;78.65
43420;BME280;29017;51.514;-0.178;2023-02-13T03:51:25;103071.97;;;9.33;78.20
43420;BME280;29017;51.514;-0.178;2023-02-13T03:53:55;103075.44;;;9.34;78.17
43420;BME280;29017;51.514;-0.178;2023-02-13T03:56:25;103068.50;;;9.33;77.84
43420;BME280;29017;51.514;-0.178;2023-02-13T03:58:56;103069.41;;;9.32;76.86
43420;BME280;29017;51.514;-0.178;2023-02-13T04:01:28;103069.63;;;9.29;75.70
43420;BME280;29017;51.514;-0.178;2023-02-13T04:03:58;103073.16;;;9.28;76.34
43420;BME280;29017;51.514;-0.178;2023-02-13T04:06:29;103070.69;;;9.25;75.88
43420;BME280;29017;51.514;-0.178;2023-02-13T04:08:57;103068.06;;;9.25;76.33
43420;BME280;29017;51.514;-0.178;2023-02-13T04:11:27;103070.63;;;9.26;76.22
43420;BME280;29017;51.514;-0.178;2023-02-13T04:13:59;103065.44;;;9.25;75.69
43420;BME280;29017;51.514;-0.178;2023-02-13T04:18:53;103067.41;;;9.21;75.34
43420;BME280;29017;51.514;-0.178;2023-02-13T04:21:21;103064.97;;;9.18;75.72
43420;BME280;29017;51.514;-0.178;2023-02-13T04:23:48;103074.63;;;9.18;75.56
43420;BME280;29017;51.514;-0.178;2023-02-13T04:26:16;103073.72;;;9.19;75.05
43420;BME280;29017;51.514;-0.178;2023-02-13T04:28:44;103069.38;;;9.18;75.99
43420;BME280;29017;51.514;-0.178;2023-02-13T04:31:11;103071.16;;;9.17;75.43
43420;BME280;29017;51.514;-0.178;2023-02-13T04:33:38;103072.94;;;9.17;75.47
43420;BME280;29017;51.514;-0.178;2023-02-13T04:36:06;103067.69;;;9.17;76.16
43420;BME280;29017;51.514;-0.178;2023-02-13T04:38:33;103070.31;;;9.17;75.45
43420;BME280;29017;51.514;-0.178;2023-02-13T04:41:00;103070.31;;;9.17;75.98
43420;BME280;29017;51.514;-0.178;2023-02-13T04:43:27;103064.41;;;9.13;76.28
43420;BME280;29017;51.514;-0.178;2023-02-13T04:45:53;103066.25;;;9.11;76.17
43420;BME280;29017;51.514;-0.178;2023-02-13T04:48:20;103072.44;;;9.10;76.39
43420;BME280;29017;51.514;-0.178;2023-02-13T04:50:47;103068.22;;;9.08;76.29
43420;BME280;29017;51.514;-0.178;2023-02-13T04:53:14;103063.88;;;9.07;76.41
43420;BME280;29017;51.514;-0.178;2023-02-13T04:55:41;103063.88;;;9.07;76.58
43420;BME280;29017;51.514;-0.178;2023-02-13T04:58:08;103063.97;;;9.05;76.78
43420;BME280;29017;51.514;-0.178;2023-02-13T05:00:35;103063.22;;;9.03;75.84
43420;BME280;29017;51.514;-0.178;2023-02-13T05:03:04;103066.84;;;9.00;75.58
43420;BME280;29017;51.514;-0.178;2023-02-13T05:05:31;103061.69;;;8.99;75.65
43420;BME280;29017;51.514;-0.178;2023-02-13T05:07:58;103061.78;;;8.97;75.28
43420;BME280;29017;51.514;-0.178;2023-02-13T05:10:26;103066.19;;;8.97;76.31
43420;BME280;29017;51.514;-0.178;2023-02-13T05:12:53;103067.97;;;8.96;75.98
43420;BME280;29017;51.514;-0.178;2023-02-13T05:15:20;103064.41;;;8.97;75.52
43420;BME280;29017;51.514;-0.178;2023-02-13T05:17:48;103059.16;;;8.97;75.98
43420;BME280;29017;51.514;-0.178;2023-02-13T05:20:15;103059.25;;;8.96;75.70
43420;BME280;29017;51.514;-0.178;2023-02-13T05:22:44;103056.53;;;8.97;75.76
43420;BME280;29017;51.514;-0.178;2023-02-13T05:25:14;103049.66;;;8.95;75.35
43420;BME280;29017;51.514;-0.178;2023-02-13T05:27:41;103040.94;;;8.94;75.19
43420;BME280;29017;51.514;-0.178;2023-02-13T05:30:08;103048.94;;;8.93;75.42
43420;BME280;29017;51.514;-0.178;2023-02-13T05:32:35;103051.63;;;8.91;75.32
43420;BME280;29017;51.514;-0.178;2023-02-13T05:35:03;103044.53;;;8.93;75.57
43420;BME280;29017;51.514;-0.178;2023-02-13T05:37:31;103042.81;;;8.92;75.92
43420;BME280;29017;51.514;-0.178;2023-02-13T05:39:57;103037.66;;;8.91;75.18
43420;BME280;29017;51.514;-0.178;2023-02-13T05:42:25;103029.78;;;8.91;76.32
43420;BME280;29017;51.514;-0.178;2023-02-13T05:44:52;103032.41;;;8.91;75.90
43420;BME280;29017;51.514;-0.178;2023-02-13T05:47:18;103043.09;;;8.88;75.73
43420;BME280;29017;51.514;-0.178;2023-02-13T05:49:45;103038.00;;;8.85;76.41
43420;BME280;29017;51.514;-0.178;2023-02-13T05:52:12;103042.50;;;8.83;75.79
43420;BME280;29017;51.514;-0.178;2023-02-13T05:54:39;103042.59;;;8.81;76.44
43420;BME280;29017;51.514;-0.178;2023-02-13T05:57:06;103036.69;;;8.78;76.29
43420;BME280;29017;51.514;-0.178;2023-02-13T05:59:33;103037.59;;;8.77;77.34
43420;BME280;29017;51.514;-0.178;2023-02-13T06:02:00;103032.44;;;8.75;78.42
43420;BME280;29017;51.514;-0.178;2023-02-13T06:04:27;103036.94;;;8.73;78.41
43420;BME280;29017;51.514;-0.178;2023-02-13T06:06:54;103037.84;;;8.72;78.19
43420;BME280;29017;51.514;-0.178;2023-02-13T06:09:21;103043.19;;;8.71;78.22
43420;BME280;29017;51.514;-0.178;2023-02-13T06:11:47;103034.47;;;8.70;78.18
43420;BME280;29017;51.514;-0.178;2023-02-13T06:14:14;103037.28;;;8.67;78.32
43420;BME280;29017;51.514;-0.178;2023-02-13T06:16:41;103038.84;;;8.70;79.69
43420;BME280;29017;51.514;-0.178;2023-02-13T06:19:08;103038.97;;;8.68;78.46
43420;BME280;29017;51.514;-0.178;2023-02-13T06:21:35;103033.13;;;8.63;78.54
43420;BME280;29017;51.514;-0.178;2023-02-13T06:24:04;103041.09;;;8.62;79.48
43420;BME280;29017;51.514;-0.178;2023-02-13T06:26:31;103038.47;;;8.62;79.42
43420;BME280;29017;51.514;-0.178;2023-02-13T06:28:58;103042.84;;;8.61;79.25
43420;BME280;29017;51.514;-0.178;2023-02-13T06:31:25;103035.97;;;8.58;77.88
43420;BME280;29017;51.514;-0.178;2023-02-13T06:33:52;103036.94;;;8.57;78.70
43420;BME280;29017;51.514;-0.178;2023-02-13T06:36:19;103029.16;;;8.56;77.77
43420;BME280;29017;51.514;-0.178;2023-02-13T06:38:46;103033.53;;;8.55;78.72
43420;BME280;29017;51.514;-0.178;2023-02-13T06:41:13;103038.00;;;8.53;78.73
43420;BME280;29017;51.514;-0.178;2023-02-13T06:43:40;103037.09;;;8.54;77.85
43420;BME280;29017;51.514;-0.178;2023-02-13T06:46:07;103043.13;;;8.56;78.24
43420;BME280;29017;51.514;-0.178;2023-02-13T06:48:34;103042.34;;;8.54;78.12
43420;BME280;29017;51.514;-0.178;2023-02-13T06:51:01;103045.81;;;8.55;78.07
43420;BME280;29017;51.514;-0.178;2023-02-13T06:53:28;103046.91;;;8.51;78.00
43420;BME280;29017;51.514;-0.178;2023-02-13T06:55:55;103050.38;;;8.51;77.96
43420;BME280;29017;51.514;-0.178;2023-02-13T06:58:23;103054.78;;;8.51;78.21
43420;BME280;29017;51.514;-0.178;2023-02-13T07:00:50;103050.53;;;8.48;78.10
43420;BME280;29017;51.514;-0.178;2023-02-13T07:03:18;103047.91;;;8.48;78.26
43420;BME280;29017;51.514;-0.178;2023-02-13T07:05:45;103050.53;;;8.48;78.46
43420;BME280;29017;51.514;-0.178;2023-02-13T07:08:12;103051.50;;;8.47;78.52
43420;BME280;29017;51.514;-0.178;2023-02-13T07:10:39;103048.69;;;8.50;79.95
43420;BME280;29017;51.514;-0.178;2023-02-13T07:13:06;103051.56;;;8.46;79.61
43420;BME280;29017;51.514;-0.178;2023-02-13T07:15:34;103047.16;;;8.46;80.32
43420;BME280;29017;51.514;-0.178;2023-02-13T07:18:01;103049.88;;;8.45;80.11
43420;BME280;29017;51.514;-0.178;2023-02-13T07:20:28;103052.50;;;8.45;80.30
43420;BME280;29017;51.514;-0.178;2023-02-13T07:22:56;103053.41;;;8.44;80.44
43420;BME280;29017;51.514;-0.178;2023-02-13T07:25:24;103056.88;;;8.44;80.63
43420;BME280;29017;51.514;-0.178;2023-02-13T07:27:51;103058.59;;;8.45;80.97
43420;BME280;29017;51.514;-0.178;2023-02-13T07:30:18;103057.75;;;8.45;80.49
43420;BME280;29017;51.514;-0.178;2023-02-13T07:32:45;103064.63;;;8.47;80.87
43420;BME280;29017;51.514;-0.178;2023-02-13T07:35:12;103063.84;;;8.45;80.73
43420;BME280;29017;51.514;-0.178;2023-02-13T07:37:39;103065.53;;;8.46;80.19
43420;BME280;29017;51.514;-0.178;2023-02-13T07:40:09;103063.66;;;8.48;80.85
43420;BME280;29017;51.514;-0.178;2023-02-13T07:42:36;103061.72;;;8.52;81.85
43420;BME280;29017;51.514;-0.178;2023-02-13T07:45:03;103067.91;;;8.51;80.71
43420;BME280;29017;51.514;-0.178;2023-02-13T07:47:32;103069.41;;;8.55;80.94
43420;BME280;29017;51.514;-0.178;2023-02-13T07:50:00;103060.56;;;8.57;80.88
43420;BME280;29017;51.514;-0.178;2023-02-13T07:52:27;103061.56;;;8.55;80.01
43420;BME280;29017;51.514;-0.178;2023-02-13T07:54:53;103064.03;;;8.58;80.42
43420;BME280;29017;51.514;-0.178;2023-02-13T07:57:20;103064.69;;;8.62;80.01
43420;BME280;29017;51.514;-0.178;2023-02-13T07:59:47;103066.41;;;8.63;79.34
43420;BME280;29017;51.514;-0.178;2023-02-13T08:02:15;103053.16;;;8.64;79.39
43420;BME280;29017;51.514;-0.178;2023-02-13T08:04:42;103053.16;;;8.64;79.01
43420;BME280;29017;51.514;-0.178;2023-02-13T08:07:13;103055.72;;;8.66;79.92
43420;BME280;29017;51.514;-0.178;2023-02-13T08:09:40;103054.53;;;8.71;79.47
43420;BME280;29017;51.514;-0.178;2023-02-13T08:12:10;103053.84;;;8.83;79.43
43420;BME280;29017;51.514;-0.178;2023-02-13T08:14:37;103054.53;;;8.87;79.45
43420;BME280;29017;51.514;-0.178;2023-02-13T08:17:04;103051.03;;;8.86;78.36
43420;BME280;29017;51.514;-0.178;2023-02-13T08:19:31;103052.63;;;8.89;78.47
43420;BME280;29017;51.514;-0.178;2023-02-13T08:21:58;103056.97;;;8.90;78.71
43420;BME280;29017;51.514;-0.178;2023-02-13T08:24:25;103049.84;;;8.92;78.61
43420;BME280;29017;51.514;-0.178;2023-02-13T08:26:52;103047.38;;;8.89;78.77
43420;BME280;29017;51.514;-0.178;2023-02-13T08:29:19;103048.16;;;8.91;79.33
43420;BME280;29017;51.514;-0.178;2023-02-13T08:31:46;103048.09;;;8.92;79.50
43420;BME280;29017;51.514;-0.178;2023-02-13T08:34:13;103044.41;;;8.95;79.75
43420;BME280;29017;51.514;-0.178;2023-02-13T08:36:40;103039.16;;;8.95;79.99
43420;BME280;29017;51.514;-0.178;2023-02-13T08:39:08;103038.81;;;9.01;79.48
43420;BME280;29017;51.514;-0.178;2023-02-13T08:41:35;103048.63;;;9.43;78.59
43420;BME280;29017;51.514;-0.178;2023-02-13T08:44:02;103044.66;;;9.80;76.61
43420;BME280;29017;51.514;-0.178;2023-02-13T08:46:29;103049.63;;;10.13;75.52
43420;BME280;29017;51.514;-0.178;2023-02-13T08:48:56;103044.66;;;10.22;73.51
43420;BME280;29017;51.514;-0.178;2023-02-13T08:51:23;103045.97;;;10.01;73.98
43420;BME280;29017;51.514;-0.178;2023-02-13T08:53:50;103041.75;;;9.84;75.20
43420;BME280;29017;51.514;-0.178;2023-02-13T08:56:17;103044.19;;;9.73;76.22
43420;BME280;29017;51.514;-0.178;2023-02-13T08:58:47;103049.88;;;9.66;75.90
43420;BME280;29017;51.514;-0.178;2023-02-13T09:01:14;103047.66;;;9.60;75.91
43420;BME280;29017;51.514;-0.178;2023-02-13T09:03:41;103045.44;;;9.52;75.78
43420;BME280;29017;51.514;-0.178;2023-02-13T09:06:08;103041.41;;;9.47;76.16
43420;BME280;29017;51.514;-0.178;2023-02-13T09:08:35;103050.22;;;9.45;76.96
43420;BME280;29017;51.514;-0.178;2023-02-13T09:11:03;103040.56;;;9.46;77.36
43420;BME280;29017;51.514;-0.178;2023-02-13T09:13:31;103036.06;;;9.48;76.78
43420;BME280;29017;51.514;-0.178;2023-02-13T09:16:00;103029.97;;;9.48;77.12
43420;BME280;29017;51.514;-0.178;2023-02-13T09:18:28;103021.22;;;9.47;76.77
43420;BME280;29017;51.514;-0.178;2023-02-13T09:20:57;103021.16;;;9.49;77.32
43420;BME280;29017;51.514;-0.178;2023-02-13T09:23:24;103029.03;;;9.49;77.08
43420;BME280;29017;51.514;-0.178;2023-02-13T09:25:51;103030.63;;;9.51;76.30
43420;BME280;29017;51.514;-0.178;2023-02-13T09:28:18;103027.06;;;9.52;76.57
43420;BME280;29017;51.514;-0.178;2023-02-13T09:30:45;103025.38;;;9.51;76.33
43420;BME280;29017;51.514;-0.178;2023-02-13T09:33:14;103021.03;;;9.50;76.94
43420;BME280;29017;51.514;-0.178;2023-02-13T09:35:42;103015.78;;;9.50;76.73
43420;BME280;29017;51.514;-0.178;2023-02-13T09:38:10;103016.34;;;9.55;77.55
43420;BME280;29017;51.514;-0.178;2023-02-13T09:45:34;103018.81;;;9.58;77.13
43420;BME280;29017;51.514;-0.178;2023-02-13T09:48:02;103009.03;;;9.60;77.08
43420;BME280;29017;51.514;-0.178;2023-02-13T09:50:30;103009.72;;;9.64;77.33
43420;BME280;29017;51.514;-0.178;2023-02-13T09:52:58;103011.88;;;9.71;78.49
43420;BME280;29017;51.514;-0.178;2023-02-13T09:55:28;103006.44;;;9.74;77.91
43420;BME280;29017;51.514;-0.178;2023-02-13T10:00:28;103007.75;;;9.81;76.27
43420;BME280;29017;51.514;-0.178;2023-02-13T10:10:26;103025.97;;;9.99;75.50
43420;BME280;29017;51.514;-0.178;2023-02-13T10:25:27;103009.53;;;10.23;75.97
43420;BME280;29017;51.514;-0.178;2023-02-13T10:30:27;103008.94;;;10.33;75.47
43420;BME280;29017;51.514;-0.178;2023-02-13T10:35:29;103010.06;;;10.43;75.10
43420;BME280;29017;51.514;-0.178;2023-02-13T10:37:57;103012.38;;;10.47;74.53
43420;BME280;29017;51.514;-0.178;2023-02-13T10:57:55;103016.75;;;10.75;74.99
43420;BME280;29017;51.514;-0.178;2023-02-13T11:00:30;103026.13;;;10.79;74.42
43420;BME280;29017;51.514;-0.178;2023-02-13T11:02:59;103016.22;;;10.83;74.22
43420;BME280;29017;51.514;-0.178;2023-02-13T11:07:56;103012.56;;;10.85;74.51
43420;BME280;29017;51.514;-0.178;2023-02-13T11:10:25;103015.75;;;10.90;74.65
43420;BME280;29017;51.514;-0.178;2023-02-13T11:12:55;103012.03;;;10.93;73.81
43420;BME280;29017;51.514;-0.178;2023-02-13T11:17:53;103012.03;;;10.93;73.31
43420;BME280;29017;51.514;-0.178;2023-02-13T11:20:22;103011.84;;;10.96;74.30
43420;BME280;29017;51.514;-0.178;2023-02-13T11:22:50;103013.44;;;10.98;74.03
43420;BME280;29017;51.514;-0.178;2023-02-13T11:25:20;103007.84;;;11.03;74.56
43420;BME280;29017;51.514;-0.178;2023-02-13T11:27:48;102999.66;;;11.07;74.41
43420;BME280;29017;51.514;-0.178;2023-02-13T11:32:47;102994.41;;;11.20;73.97
43420;BME280;29017;51.514;-0.178;2023-02-13T11:42:52;102990.66;;;11.37;73.07
43420;BME280;29017;51.514;-0.178;2023-02-13T11:45:20;102984.22;;;11.41;72.48
43420;BME280;29017;51.514;-0.178;2023-02-13T11:47:48;102983.91;;;11.45;72.47
43420;BME280;29017;51.514;-0.178;2023-02-13T11:57:54;102958.25;;;11.60;72.46
43420;BME280;29017;51.514;-0.178;2023-02-13T12:02:53;102952.34;;;11.69;72.19
43420;BME280;29017;51.514;-0.178;2023-02-13T12:05:22;102942.47;;;11.73;72.05
43420;BME280;29017;51.514;-0.178;2023-02-13T12:07:49;102941.19;;;11.78;71.70
43420;BME280;29017;51.514;-0.178;2023-02-13T12:15:17;102941.25;;;11.89;71.08
43420;BME280;29017;51.514;-0.178;2023-02-13T12:17:45;102935.78;;;11.92;70.65
43420;BME280;29017;51.514;-0.178;2023-02-13T12:20:15;102937.25;;;11.96;70.64
43420;BME280;29017;51.514;-0.178;2023-02-13T12:22:46;102943.03;;;12.02;70.83
43420;BME280;29017;51.514;-0.178;2023-02-13T12:50:21;102913.19;;;12.49;68.23
43420;BME280;29017;51.514;-0.178;2023-02-13T12:55:24;102909.25;;;12.54;68.34
43420;BME280;29017;51.514;-0.178;2023-02-13T13:07:57;102899.59;;;12.77;67.95
43420;BME280;29017;51.514;-0.178;2023-02-13T13:15:28;102888.13;;;12.89;67.53
43420;BME280;29017;51.514;-0.178;2023-02-13T13:23:01;102886.66;;;12.96;67.61
43420;BME280;29017;51.514;-0.178;2023-02-13T13:25:33;102881.38;;;12.96;67.25
43420;BME280;29017;51.514;-0.178;2023-02-13T13:30:32;102873.09;;;13.01;66.50
43420;BME280;29017;51.514;-0.178;2023-02-13T13:33:04;102871.94;;;13.05;66.75
43420;BME280;29017;51.514;-0.178;2023-02-13T13:35:32;102871.56;;;13.09;67.08
43420;BME280;29017;51.514;-0.178;2023-02-13T13:42:59;102864.75;;;13.18;67.73
43420;BME280;29017;51.514;-0.178;2023-02-13T13:45:33;102868.97;;;13.20;68.48
43420;BME280;29017;51.514;-0.178;2023-02-13T13:50:34;102861.03;;;13.20;67.07
43420;BME280;29017;51.514;-0.178;2023-02-13T13:53:04;102852.97;;;13.22;66.76
43420;BME280;29017;51.514;-0.178;2023-02-13T13:58:01;102847.56;;;13.23;69.34
43420;BME280;29017;51.514;-0.178;2023-02-13T14:00:29;102842.19;;;13.25;68.36
43420;BME280;29017;51.514;-0.178;2023-02-13T14:07:54;102833.88;;;13.30;66.35
43420;BME280;29017;51.514;-0.178;2023-02-13T14:17:49;102819.44;;;13.34;67.40
43420;BME280;29017;51.514;-0.178;2023-02-13T14:22:47;102820.03;;;13.37;66.81
43420;BME280;29017;51.514;-0.178;2023-02-13T14:27:51;102816.06;;;13.43;67.59
43420;BME280;29017;51.514;-0.178;2023-02-13T14:30:25;102809.81;;;13.44;66.84
43420;BME280;29017;51.514;-0.178;2023-02-13T14:32:52;102812.22;;;13.47;67.60
43420;BME280;29017;51.514;-0.178;2023-02-13T14:37:50;102810.31;;;13.49;67.37
43420;BME280;29017;51.514;-0.178;2023-02-13T14:42:47;102808.13;;;13.54;67.50
43420;BME280;29017;51.514;-0.178;2023-02-13T14:45:18;102808.13;;;13.54;66.96
43420;BME280;29017;51.514;-0.178;2023-02-13T14:47:48;102804.53;;;13.55;66.83
43420;BME280;29017;51.514;-0.178;2023-02-13T14:50:21;102811.50;;;13.56;66.74
43420;BME280;29017;51.514;-0.178;2023-02-13T14:52:50;102805.38;;;13.55;66.37
43420;BME280;29017;51.514;-0.178;2023-02-13T14:57:49;102809.19;;;13.62;68.26
43420;BME280;29017;51.514;-0.178;2023-02-13T15:02:50;102805.31;;;13.66;67.53
43420;BME280;29017;51.514;-0.178;2023-02-13T15:05:18;102810.63;;;13.66;67.55
43420;BME280;29017;51.514;-0.178;2023-02-13T15:12:44;102802.19;;;13.73;68.94
43420;BME280;29017;51.514;-0.178;2023-02-13T15:17:41;102800.16;;;13.76;69.99
43420;BME280;29017;51.514;-0.178;2023-02-13T15:22:38;102793.41;;;13.72;68.32
43420;BME280;29017;51.514;-0.178;2023-02-13T15:25:07;102791.75;;;13.71;68.61
43420;BME280;29017;51.514;-0.178;2023-02-13T15:27:40;102795.22;;;13.71;68.48
43420;BME280;29017;51.514;-0.178;2023-02-13T15:32:38;102791.59;;;13.73;68.37
43420;BME280;29017;51.514;-0.178;2023-02-13T15:37:37;102790.28;;;13.67;67.84
43420;BME280;29017;51.514;-0.178;2023-02-13T15:42:36;102784.41;;;13.63;67.85
43420;BME280;29017;51.514;-0.178;2023-02-13T15:45:03;102781.88;;;13.62;67.71
43420;BME280;29017;51.514;-0.178;2023-02-13T15:47:31;102788.16;;;13.61;68.15
43420;BME280;29017;51.514;-0.178;2023-02-13T15:49:58;102782.72;;;13.62;69.37
43420;BME280;29017;51.514;-0.178;2023-02-13T15:54:56;102791.16;;;13.56;68.18
43420;BME280;29017;51.514;-0.178;2023-02-13T15:57:23;102788.50;;;13.56;68.39
43420;BME280;29017;51.514;-0.178;2023-02-13T15:59:53;102786.13;;;13.53;68.58
43420;BME280;29017;51.514;-0.178;2023-02-13T16:04:51;102787.22;;;13.51;68.56
43420;BME280;29017;51.514;-0.178;2023-02-13T16:07:19;102786.63;;;13.47;68.78
43420;BME280;29017;51.514;-0.178;2023-02-13T16:09:46;102790.22;;;13.46;69.38
43420;BME280;29017;51.514;-0.178;2023-02-13T16:14:46;102786.97;;;13.43;69.72
43420;BME280;29017;51.514;-0.178;2023-02-13T16:17:16;102788.66;;;13.44;71.67
43420;BME280;29017;51.514;-0.178;2023-02-13T16:19:49;102792.28;;;13.43;71.07
43420;BME280;29017;51.514;-0.178;2023-02-13T16:24:48;102794.81;;;13.33;69.70
43420;BME280;29017;51.514;-0.178;2023-02-13T16:27:16;102795.91;;;13.31;69.55
43420;BME280;29017;51.514;-0.178;2023-02-13T16:29:48;102795.28;;;13.27;69.67
43420;BME280;29017;51.514;-0.178;2023-02-13T16:32:19;102795.44;;;13.25;70.22
43420;BME280;29017;51.514;-0.178;2023-02-13T16:34:48;102791.34;;;13.21;70.28
43420;BME280;29017;51.514;-0.178;2023-02-13T16:39:46;102791.09;;;13.13;70.93
43420;BME280;29017;51.514;-0.178;2023-02-13T16:42:16;102786.03;;;13.10;71.33
43420;BME280;29017;51.514;-0.178;2023-02-13T16:44:44;102798.63;;;13.07;71.31
43420;BME280;29017;51.514;-0.178;2023-02-13T16:49:49;102799.94;;;13.01;72.21
43420;BME280;29017;51.514;-0.178;2023-02-13T16:52:19;102792.28;;;12.98;72.70
43420;BME280;29017;51.514;-0.178;2023-02-13T16:57:28;102792.84;;;12.91;71.98
43420;BME280;29017;51.514;-0.178;2023-02-13T17:07:29;102796.69;;;12.75;73.25
43420;BME280;29017;51.514;-0.178;2023-02-13T17:12:26;102791.75;;;12.71;74.66
43420;BME280;29017;51.514;-0.178;2023-02-13T17:14:55;102793.69;;;12.69;73.43